sensor_id;sensor_type;location;lat;lon;timestamp;P1;durP1;ratioP1;P2;durP2;ratioP2
15425;SDS011;7812;50.072;7.036;2023-05-23T00:00:39;30.07;;;24.87;;
15425;SDS011;7812;50.072;7.036;2023-05-23T00:03:06;27.83;;;24.87;;
15425;SDS011;7812;50.072;7.036;2023-05-23T00:05:32;26.60;;;23.70;;
15425;SDS011;7812;50.072;7.036;2023-05-23T00:07:59;31.03;;;25.43;;
15425;SDS011;7812;50.072;7.036;2023-05-23T00:10:25;29.17;;;23.73;;
15425;SDS011;7812;50.072;7.036;2023-05-23T00:12:51;25.77;;;23.00;;
15425;SDS011;7812;50.072;7.036;2023-05-23T00:15:17;30.37;;;24.80;;
15425;SDS011;7812;50.072;7.036;2023-05-23T00:17:43;25.27;;;22.50;;
15425;SDS011;7812;50.072;7.036;2023-05-23T00:20:09;29.33;;;25.80;;
15425;SDS011;7812;50.072;7.036;2023-05-23T00:22:36;31.70;;;25.73;;
15425;SDS011;7812;50.072;7.036;2023-05-23T00:25:07;37.37;;;27.40;;
15425;SDS011;7812;50.072;7.036;2023-05-23T00:27:35;28.50;;;24.73;;
15425;SDS011;7812;50.072;7.036;2023-05-23T00:30:01;32.50;;;25.33;;
15425;SDS011;7812;50.072;7.036;2023-05-23T00:32:27;30.80;;;24.47;;
15425;SDS011;7812;50.072;7.036;2023-05-23T00:34:52;28.20;;;24.17;;
15425;SDS011;7812;50.072;7.036;2023-05-23T00:37:20;27.43;;;23.93;;
15425;SDS011;7812;50.072;7.036;2023-05-23T00:39:46;26.30;;;23.50;;
15425;SDS011;7812;50.072;7.036;2023-05-23T00:42:12;27.77;;;23.90;;
15425;SDS011;7812;50.072;7.036;2023-05-23T00:44:38;30.87;;;23.30;;
15425;SDS011;7812;50.072;7.036;2023-05-23T00:47:04;27.30;;;24.03;;
15425;SDS011;7812;50.072;7.036;2023-05-23T00:49:31;25.20;;;21.27;;
15425;SDS011;7812;50.072;7.036;2023-05-23T00:51:58;28.60;;;23.27;;
15425;SDS011;7812;50.072;7.036;2023-05-23T00:54:28;24.60;;;21.93;;
15425;SDS011;7812;50.072;7.036;2023-05-23T00:56:56;23.90;;;20.87;;
15425;SDS011;7812;50.072;7.036;2023-05-23T00:59:23;24.50;;;21.67;;
15425;SDS011;7812;50.072;7.036;2023-05-23T01:01:50;24.53;;;21.87;;
15425;SDS011;7812;50.072;7.036;2023-05-23T01:04:17;26.33;;;22.10;;
15425;SDS011;7812;50.072;7.036;2023-05-23T01:06:44;26.60;;;22.93;;
15425;SDS011;7812;50.072;7.036;2023-05-23T01:09:14;25.83;;;23.00;;
15425;SDS011;7812;50.072;7.036;2023-05-23T01:12:28;65.77;;;28.10;;
15425;SDS011;7812;50.072;7.036;2023-05-23T01:17:28;30.67;;;23.93;;
15425;SDS011;7812;50.072;7.036;2023-05-23T01:20:27;31.47;;;23.40;;
15425;SDS011;7812;50.072;7.036;2023-05-23T01:28:10;26.93;;;23.67;;
15425;SDS011;7812;50.072;7.036;2023-05-23T01:30:40;26.87;;;23.50;;
15425;SDS011;7812;50.072;7.036;2023-05-23T01:33:27;27.03;;;23.93;;
15425;SDS011;7812;50.072;7.036;2023-05-23T01:35:55;26.70;;;23.83;;
15425;SDS011;7812;50.072;7.036;2023-05-23T01:38:22;25.23;;;22.60;;
15425;SDS011;7812;50.072;7.036;2023-05-23T01:40:47;27.77;;;23.27;;
15425;SDS011;7812;50.072;7.036;2023-05-23T01:43:13;26.67;;;23.13;;
15425;SDS011;7812;50.072;7.036;2023-05-23T01:45:40;24.90;;;21.50;;
15425;SDS011;7812;50.072;7.036;2023-05-23T01:48:06;23.20;;;20.90;;
15425;SDS011;7812;50.072;7.036;2023-05-23T01:50:35;25.70;;;22.43;;
15425;SDS011;7812;50.072;7.036;2023-05-23T01:53:02;23.47;;;20.87;;
15425;SDS011;7812;50.072;7.036;2023-05-23T01:55:28;26.40;;;22.57;;
15425;SDS011;7812;50.072;7.036;2023-05-23T01:57:55;26.43;;;22.20;;
15425;SDS011;7812;50.072;7.036;2023-05-23T02:00:22;23.93;;;19.73;;
15425;SDS011;7812;50.072;7.036;2023-05-23T02:02:48;24.03;;;21.53;;
15425;SDS011;7812;50.072;7.036;2023-05-23T02:05:14;23.10;;;20.53;;
15425;SDS011;7812;50.072;7.036;2023-05-23T02:07:39;23.50;;;21.10;;
15425;SDS011;7812;50.072;7.036;2023-05-23T02:10:06;21.40;;;18.93;;
15425;SDS011;7812;50.072;7.036;2023-05-23T02:12:33;20.27;;;18.17;;
15425;SDS011;7812;50.072;7.036;2023-05-23T02:14:58;21.63;;;19.47;;
15425;SDS011;7812;50.072;7.036;2023-05-23T02:17:24;23.77;;;21.13;;
15425;SDS011;7812;50.072;7.036;2023-05-23T02:19:50;22.83;;;20.33;;
15425;SDS011;7812;50.072;7.036;2023-05-23T02:22:15;22.77;;;20.30;;
15425;SDS011;7812;50.072;7.036;2023-05-23T02:24:41;39.27;;;23.17;;
15425;SDS011;7812;50.072;7.036;2023-05-23T02:27:07;35.47;;;21.40;;
15425;SDS011;7812;50.072;7.036;2023-05-23T02:29:32;21.97;;;19.17;;
15425;SDS011;7812;50.072;7.036;2023-05-23T02:31:58;29.10;;;22.73;;
15425;SDS011;7812;50.072;7.036;2023-05-23T02:34:24;22.87;;;20.47;;
15425;SDS011;7812;50.072;7.036;2023-05-23T02:36:50;22.30;;;19.87;;
15425;SDS011;7812;50.072;7.036;2023-05-23T02:39:16;23.17;;;20.80;;
15425;SDS011;7812;50.072;7.036;2023-05-23T02:41:43;23.50;;;20.93;;
15425;SDS011;7812;50.072;7.036;2023-05-23T02:44:08;25.50;;;19.50;;
15425;SDS011;7812;50.072;7.036;2023-05-23T02:46:34;21.70;;;19.27;;
15425;SDS011;7812;50.072;7.036;2023-05-23T02:49:01;26.77;;;22.70;;
15425;SDS011;7812;50.072;7.036;2023-05-23T02:51:26;22.10;;;19.70;;
15425;SDS011;7812;50.072;7.036;2023-05-23T02:53:52;21.53;;;19.43;;
15425;SDS011;7812;50.072;7.036;2023-05-23T02:56:18;25.87;;;19.33;;
15425;SDS011;7812;50.072;7.036;2023-05-23T02:58:46;22.63;;;19.57;;
15425;SDS011;7812;50.072;7.036;2023-05-23T03:01:12;25.20;;;20.13;;
15425;SDS011;7812;50.072;7.036;2023-05-23T03:03:38;21.17;;;18.97;;
15425;SDS011;7812;50.072;7.036;2023-05-23T03:06:06;23.97;;;19.93;;
15425;SDS011;7812;50.072;7.036;2023-05-23T03:08:34;20.40;;;18.33;;
15425;SDS011;7812;50.072;7.036;2023-05-23T03:11:00;21.20;;;17.80;;
15425;SDS011;7812;50.072;7.036;2023-05-23T03:13:27;19.87;;;17.80;;
15425;SDS011;7812;50.072;7.036;2023-05-23T03:15:52;20.37;;;17.73;;
15425;SDS011;7812;50.072;7.036;2023-05-23T03:18:19;21.13;;;18.93;;
15425;SDS011;7812;50.072;7.036;2023-05-23T03:20:45;23.53;;;18.07;;
15425;SDS011;7812;50.072;7.036;2023-05-23T03:23:11;20.80;;;18.70;;
15425;SDS011;7812;50.072;7.036;2023-05-23T03:25:38;20.60;;;18.23;;
15425;SDS011;7812;50.072;7.036;2023-05-23T03:28:03;20.60;;;18.40;;
15425;SDS011;7812;50.072;7.036;2023-05-23T03:30:29;19.87;;;17.70;;
15425;SDS011;7812;50.072;7.036;2023-05-23T03:32:55;22.17;;;18.97;;
15425;SDS011;7812;50.072;7.036;2023-05-23T03:35:20;19.00;;;17.10;;
15425;SDS011;7812;50.072;7.036;2023-05-23T03:37:46;20.50;;;17.50;;
15425;SDS011;7812;50.072;7.036;2023-05-23T03:40:13;21.43;;;17.70;;
15425;SDS011;7812;50.072;7.036;2023-05-23T03:42:46;20.33;;;18.20;;
15425;SDS011;7812;50.072;7.036;2023-05-23T03:45:12;19.77;;;17.77;;
15425;SDS011;7812;50.072;7.036;2023-05-23T03:47:38;18.80;;;16.87;;
15425;SDS011;7812;50.072;7.036;2023-05-23T03:50:04;19.43;;;17.53;;
15425;SDS011;7812;50.072;7.036;2023-05-23T03:52:30;18.53;;;16.60;;
15425;SDS011;7812;50.072;7.036;2023-05-23T03:54:57;20.70;;;18.50;;
15425;SDS011;7812;50.072;7.036;2023-05-23T03:57:22;18.90;;;17.00;;
15425;SDS011;7812;50.072;7.036;2023-05-23T03:59:48;19.40;;;17.17;;
15425;SDS011;7812;50.072;7.036;2023-05-23T04:02:14;19.47;;;17.03;;
15425;SDS011;7812;50.072;7.036;2023-05-23T04:04:40;19.97;;;17.87;;
15425;SDS011;7812;50.072;7.036;2023-05-23T04:07:05;19.63;;;17.63;;
15425;SDS011;7812;50.072;7.036;2023-05-23T04:09:33;25.30;;;18.90;;
15425;SDS011;7812;50.072;7.036;2023-05-23T04:11:59;18.57;;;16.67;;
15425;SDS011;7812;50.072;7.036;2023-05-23T04:14:25;19.20;;;17.27;;
15425;SDS011;7812;50.072;7.036;2023-05-23T04:16:51;19.53;;;17.40;;
15425;SDS011;7812;50.072;7.036;2023-05-23T04:19:17;20.27;;;18.27;;
15425;SDS011;7812;50.072;7.036;2023-05-23T04:21:43;17.80;;;15.83;;
15425;SDS011;7812;50.072;7.036;2023-05-23T04:24:09;19.77;;;17.87;;
15425;SDS011;7812;50.072;7.036;2023-05-23T04:26:35;19.97;;;16.87;;
15425;SDS011;7812;50.072;7.036;2023-05-23T04:29:02;17.87;;;16.10;;
15425;SDS011;7812;50.072;7.036;2023-05-23T04:31:28;17.33;;;15.50;;
15425;SDS011;7812;50.072;7.036;2023-05-23T04:33:54;13.77;;;12.47;;
15425;SDS011;7812;50.072;7.036;2023-05-23T04:36:20;12.80;;;11.50;;
15425;SDS011;7812;50.072;7.036;2023-05-23T04:38:47;16.63;;;14.37;;
15425;SDS011;7812;50.072;7.036;2023-05-23T04:41:13;13.57;;;12.37;;
15425;SDS011;7812;50.072;7.036;2023-05-23T04:43:40;16.63;;;14.60;;
15425;SDS011;7812;50.072;7.036;2023-05-23T04:46:07;17.07;;;14.57;;
15425;SDS011;7812;50.072;7.036;2023-05-23T04:48:34;14.40;;;12.90;;
15425;SDS011;7812;50.072;7.036;2023-05-23T04:51:01;14.73;;;13.27;;
15425;SDS011;7812;50.072;7.036;2023-05-23T04:53:30;14.67;;;13.20;;
15425;SDS011;7812;50.072;7.036;2023-05-23T04:55:57;16.13;;;12.27;;
15425;SDS011;7812;50.072;7.036;2023-05-23T04:58:23;11.77;;;9.50;;
15425;SDS011;7812;50.072;7.036;2023-05-23T05:00:49;9.93;;;8.93;;
15425;SDS011;7812;50.072;7.036;2023-05-23T05:03:21;10.33;;;8.33;;
15425;SDS011;7812;50.072;7.036;2023-05-23T05:05:49;7.23;;;6.53;;
15425;SDS011;7812;50.072;7.036;2023-05-23T05:08:14;6.77;;;5.67;;
15425;SDS011;7812;50.072;7.036;2023-05-23T05:10:43;5.67;;;4.87;;
15425;SDS011;7812;50.072;7.036;2023-05-23T05:13:09;5.07;;;4.67;;
15425;SDS011;7812;50.072;7.036;2023-05-23T05:15:35;5.60;;;5.10;;
15425;SDS011;7812;50.072;7.036;2023-05-23T05:18:00;4.97;;;4.53;;
15425;SDS011;7812;50.072;7.036;2023-05-23T05:20:26;4.70;;;4.10;;
15425;SDS011;7812;50.072;7.036;2023-05-23T05:22:55;5.73;;;5.23;;
15425;SDS011;7812;50.072;7.036;2023-05-23T05:25:24;4.37;;;3.97;;
15425;SDS011;7812;50.072;7.036;2023-05-23T05:27:51;5.43;;;4.50;;
15425;SDS011;7812;50.072;7.036;2023-05-23T05:30:17;8.17;;;4.60;;
15425;SDS011;7812;50.072;7.036;2023-05-23T05:32:42;5.17;;;4.67;;
15425;SDS011;7812;50.072;7.036;2023-05-23T05:35:09;7.70;;;5.03;;
15425;SDS011;7812;50.072;7.036;2023-05-23T05:37:37;4.83;;;4.33;;
15425;SDS011;7812;50.072;7.036;2023-05-23T05:40:04;5.37;;;4.70;;
15425;SDS011;7812;50.072;7.036;2023-05-23T05:42:30;5.30;;;4.40;;
15425;SDS011;7812;50.072;7.036;2023-05-23T05:44:56;5.73;;;5.17;;
15425;SDS011;7812;50.072;7.036;2023-05-23T05:47:21;5.97;;;5.10;;
15425;SDS011;7812;50.072;7.036;2023-05-23T05:52:38;6.37;;;5.20;;
15425;SDS011;7812;50.072;7.036;2023-05-23T05:57:35;6.47;;;4.90;;
15425;SDS011;7812;50.072;7.036;2023-05-23T06:00:07;6.07;;;4.53;;
15425;SDS011;7812;50.072;7.036;2023-05-23T06:02:42;4.67;;;3.90;;
15425;SDS011;7812;50.072;7.036;2023-05-23T06:05:24;7.87;;;4.97;;
15425;SDS011;7812;50.072;7.036;2023-05-23T06:07:50;4.63;;;4.23;;
15425;SDS011;7812;50.072;7.036;2023-05-23T06:10:18;5.53;;;4.70;;
15425;SDS011;7812;50.072;7.036;2023-05-23T06:12:43;5.07;;;4.30;;
15425;SDS011;7812;50.072;7.036;2023-05-23T06:15:10;5.00;;;4.00;;
15425;SDS011;7812;50.072;7.036;2023-05-23T06:17:37;5.63;;;4.63;;
15425;SDS011;7812;50.072;7.036;2023-05-23T06:20:03;6.17;;;4.50;;
15425;SDS011;7812;50.072;7.036;2023-05-23T06:22:29;5.40;;;4.20;;
15425;SDS011;7812;50.072;7.036;2023-05-23T06:24:54;5.83;;;4.40;;
15425;SDS011;7812;50.072;7.036;2023-05-23T06:27:22;6.03;;;4.47;;
15425;SDS011;7812;50.072;7.036;2023-05-23T06:29:47;4.90;;;4.40;;
15425;SDS011;7812;50.072;7.036;2023-05-23T06:32:13;5.20;;;4.70;;
15425;SDS011;7812;50.072;7.036;2023-05-23T06:34:40;8.13;;;4.83;;
15425;SDS011;7812;50.072;7.036;2023-05-23T06:37:06;6.93;;;5.17;;
15425;SDS011;7812;50.072;7.036;2023-05-23T06:39:31;5.30;;;4.77;;
15425;SDS011;7812;50.072;7.036;2023-05-23T06:41:57;5.03;;;4.27;;
15425;SDS011;7812;50.072;7.036;2023-05-23T06:44:23;5.63;;;4.33;;
15425;SDS011;7812;50.072;7.036;2023-05-23T06:46:49;6.00;;;4.33;;
15425;SDS011;7812;50.072;7.036;2023-05-23T06:49:14;5.40;;;3.87;;
15425;SDS011;7812;50.072;7.036;2023-05-23T06:51:40;6.00;;;3.70;;
15425;SDS011;7812;50.072;7.036;2023-05-23T06:54:06;6.80;;;4.20;;
15425;SDS011;7812;50.072;7.036;2023-05-23T06:56:32;5.27;;;3.73;;
15425;SDS011;7812;50.072;7.036;2023-05-23T06:58:58;5.57;;;3.20;;
15425;SDS011;7812;50.072;7.036;2023-05-23T07:01:25;4.43;;;3.37;;
15425;SDS011;7812;50.072;7.036;2023-05-23T07:03:50;5.23;;;3.30;;
15425;SDS011;7812;50.072;7.036;2023-05-23T07:06:16;5.73;;;2.70;;
15425;SDS011;7812;50.072;7.036;2023-05-23T07:08:43;3.50;;;3.20;;
15425;SDS011;7812;50.072;7.036;2023-05-23T07:11:09;3.20;;;2.93;;
15425;SDS011;7812;50.072;7.036;2023-05-23T07:13:34;3.60;;;3.30;;
15425;SDS011;7812;50.072;7.036;2023-05-23T07:16:05;4.10;;;3.27;;
15425;SDS011;7812;50.072;7.036;2023-05-23T07:18:31;3.70;;;3.40;;
15425;SDS011;7812;50.072;7.036;2023-05-23T07:20:57;3.90;;;3.60;;
15425;SDS011;7812;50.072;7.036;2023-05-23T07:23:22;4.20;;;3.43;;
15425;SDS011;7812;50.072;7.036;2023-05-23T07:25:48;3.90;;;3.60;;
15425;SDS011;7812;50.072;7.036;2023-05-23T07:28:14;4.37;;;3.97;;
15425;SDS011;7812;50.072;7.036;2023-05-23T07:30:40;5.37;;;3.70;;
15425;SDS011;7812;50.072;7.036;2023-05-23T07:33:06;4.20;;;3.67;;
15425;SDS011;7812;50.072;7.036;2023-05-23T07:35:32;4.30;;;3.60;;
15425;SDS011;7812;50.072;7.036;2023-05-23T07:37:57;4.37;;;3.93;;
15425;SDS011;7812;50.072;7.036;2023-05-23T07:40:23;3.97;;;3.60;;
15425;SDS011;7812;50.072;7.036;2023-05-23T07:42:49;7.00;;;3.63;;
15425;SDS011;7812;50.072;7.036;2023-05-23T07:45:17;4.53;;;4.13;;
15425;SDS011;7812;50.072;7.036;2023-05-23T07:47:42;5.03;;;4.43;;
15425;SDS011;7812;50.072;7.036;2023-05-23T07:50:08;4.90;;;4.40;;
15425;SDS011;7812;50.072;7.036;2023-05-23T07:52:34;5.60;;;4.87;;
15425;SDS011;7812;50.072;7.036;2023-05-23T07:55:00;5.47;;;4.87;;
15425;SDS011;7812;50.072;7.036;2023-05-23T07:57:25;6.97;;;4.43;;
15425;SDS011;7812;50.072;7.036;2023-05-23T07:59:52;7.00;;;4.80;;
15425;SDS011;7812;50.072;7.036;2023-05-23T08:02:18;6.00;;;5.33;;
15425;SDS011;7812;50.072;7.036;2023-05-23T08:04:45;5.73;;;5.03;;
15425;SDS011;7812;50.072;7.036;2023-05-23T08:07:11;6.10;;;5.50;;
15425;SDS011;7812;50.072;7.036;2023-05-23T08:09:37;7.33;;;5.07;;
15425;SDS011;7812;50.072;7.036;2023-05-23T08:12:06;6.07;;;5.33;;
15425;SDS011;7812;50.072;7.036;2023-05-23T08:14:33;5.43;;;5.00;;
15425;SDS011;7812;50.072;7.036;2023-05-23T08:16:59;8.13;;;4.80;;
15425;SDS011;7812;50.072;7.036;2023-05-23T08:19:25;5.07;;;4.57;;
15425;SDS011;7812;50.072;7.036;2023-05-23T08:21:50;5.67;;;5.17;;
15425;SDS011;7812;50.072;7.036;2023-05-23T08:24:19;5.70;;;5.13;;
15425;SDS011;7812;50.072;7.036;2023-05-23T08:26:45;5.57;;;5.07;;
15425;SDS011;7812;50.072;7.036;2023-05-23T08:29:11;5.83;;;5.23;;
15425;SDS011;7812;50.072;7.036;2023-05-23T08:31:37;7.60;;;6.03;;
15425;SDS011;7812;50.072;7.036;2023-05-23T08:34:03;5.90;;;5.40;;
15425;SDS011;7812;50.072;7.036;2023-05-23T08:36:29;6.40;;;5.80;;
15425;SDS011;7812;50.072;7.036;2023-05-23T08:38:58;5.93;;;5.43;;
15425;SDS011;7812;50.072;7.036;2023-05-23T08:41:23;6.23;;;5.63;;
15425;SDS011;7812;50.072;7.036;2023-05-23T08:43:51;7.17;;;6.13;;
15425;SDS011;7812;50.072;7.036;2023-05-23T08:46:16;7.57;;;6.50;;
15425;SDS011;7812;50.072;7.036;2023-05-23T08:48:43;7.70;;;6.33;;
15425;SDS011;7812;50.072;7.036;2023-05-23T08:51:15;7.63;;;6.73;;
15425;SDS011;7812;50.072;7.036;2023-05-23T08:53:43;6.87;;;6.17;;
15425;SDS011;7812;50.072;7.036;2023-05-23T08:56:11;7.03;;;5.93;;
15425;SDS011;7812;50.072;7.036;2023-05-23T08:58:37;7.70;;;6.73;;
15425;SDS011;7812;50.072;7.036;2023-05-23T09:01:06;7.60;;;6.10;;
15425;SDS011;7812;50.072;7.036;2023-05-23T09:03:34;7.00;;;6.30;;
15425;SDS011;7812;50.072;7.036;2023-05-23T09:06:02;7.40;;;6.60;;
15425;SDS011;7812;50.072;7.036;2023-05-23T09:08:30;7.00;;;6.30;;
15425;SDS011;7812;50.072;7.036;2023-05-23T09:10:56;9.23;;;6.47;;
15425;SDS011;7812;50.072;7.036;2023-05-23T09:13:22;6.80;;;6.10;;
15425;SDS011;7812;50.072;7.036;2023-05-23T09:16:06;9.97;;;6.90;;
15425;SDS011;7812;50.072;7.036;2023-05-23T09:21:01;8.33;;;7.03;;
15425;SDS011;7812;50.072;7.036;2023-05-23T09:23:28;7.63;;;6.70;;
15425;SDS011;7812;50.072;7.036;2023-05-23T09:25:56;8.13;;;7.33;;
15425;SDS011;7812;50.072;7.036;2023-05-23T09:28:26;8.07;;;7.30;;
15425;SDS011;7812;50.072;7.036;2023-05-23T09:30:59;7.77;;;7.07;;
15425;SDS011;7812;50.072;7.036;2023-05-23T09:33:37;8.33;;;7.00;;
15425;SDS011;7812;50.072;7.036;2023-05-23T09:36:03;8.10;;;7.30;;
15425;SDS011;7812;50.072;7.036;2023-05-23T09:38:41;8.27;;;7.47;;
15425;SDS011;7812;50.072;7.036;2023-05-23T09:41:07;7.43;;;6.70;;
15425;SDS011;7812;50.072;7.036;2023-05-23T09:43:36;8.57;;;7.00;;
15425;SDS011;7812;50.072;7.036;2023-05-23T09:46:21;7.70;;;6.90;;
15425;SDS011;7812;50.072;7.036;2023-05-23T09:48:47;8.07;;;7.20;;
15425;SDS011;7812;50.072;7.036;2023-05-23T09:51:16;6.93;;;6.33;;
15425;SDS011;7812;50.072;7.036;2023-05-23T09:53:44;7.23;;;6.57;;
15425;SDS011;7812;50.072;7.036;2023-05-23T09:56:10;7.20;;;6.57;;
15425;SDS011;7812;50.072;7.036;2023-05-23T09:58:37;6.73;;;6.07;;
15425;SDS011;7812;50.072;7.036;2023-05-23T10:01:03;6.80;;;6.10;;
15425;SDS011;7812;50.072;7.036;2023-05-23T10:03:36;6.70;;;6.10;;
15425;SDS011;7812;50.072;7.036;2023-05-23T10:06:09;6.27;;;5.67;;
15425;SDS011;7812;50.072;7.036;2023-05-23T10:08:42;6.33;;;5.60;;
15425;SDS011;7812;50.072;7.036;2023-05-23T10:13:48;6.17;;;5.10;;
15425;SDS011;7812;50.072;7.036;2023-05-23T10:19:09;5.60;;;5.10;;
15425;SDS011;7812;50.072;7.036;2023-05-23T10:21:47;5.97;;;5.20;;
15425;SDS011;7812;50.072;7.036;2023-05-23T10:24:15;6.30;;;5.53;;
15425;SDS011;7812;50.072;7.036;2023-05-23T10:26:42;5.90;;;5.20;;
15425;SDS011;7812;50.072;7.036;2023-05-23T10:29:09;5.43;;;4.93;;
15425;SDS011;7812;50.072;7.036;2023-05-23T10:31:34;6.53;;;5.07;;
15425;SDS011;7812;50.072;7.036;2023-05-23T10:37:05;5.70;;;5.10;;
15425;SDS011;7812;50.072;7.036;2023-05-23T10:42:00;6.07;;;5.47;;
15425;SDS011;7812;50.072;7.036;2023-05-23T10:44:32;5.67;;;5.17;;
15425;SDS011;7812;50.072;7.036;2023-05-23T10:46:58;5.90;;;5.40;;
15425;SDS011;7812;50.072;7.036;2023-05-23T10:52:16;5.77;;;5.13;;
15425;SDS011;7812;50.072;7.036;2023-05-23T10:57:15;6.50;;;5.90;;
15425;SDS011;7812;50.072;7.036;2023-05-23T10:59:43;7.63;;;6.10;;
15425;SDS011;7812;50.072;7.036;2023-05-23T11:02:14;6.70;;;5.97;;
15425;SDS011;7812;50.072;7.036;2023-05-23T11:04:41;6.87;;;6.20;;
15425;SDS011;7812;50.072;7.036;2023-05-23T11:10:02;7.13;;;6.43;;
15425;SDS011;7812;50.072;7.036;2023-05-23T11:12:41;6.20;;;5.53;;
15425;SDS011;7812;50.072;7.036;2023-05-23T11:17:55;7.37;;;5.77;;
15425;SDS011;7812;50.072;7.036;2023-05-23T11:20:24;7.33;;;5.80;;
15425;SDS011;7812;50.072;7.036;2023-05-23T11:22:59;6.40;;;5.43;;
15425;SDS011;7812;50.072;7.036;2023-05-23T11:25:42;5.90;;;5.23;;
15425;SDS011;7812;50.072;7.036;2023-05-23T11:28:15;5.70;;;5.07;;
15425;SDS011;7812;50.072;7.036;2023-05-23T11:30:42;5.30;;;4.80;;
15425;SDS011;7812;50.072;7.036;2023-05-23T11:35:37;4.87;;;4.10;;
15425;SDS011;7812;50.072;7.036;2023-05-23T11:38:07;4.00;;;3.60;;
15425;SDS011;7812;50.072;7.036;2023-05-23T11:43:00;3.63;;;2.90;;
15425;SDS011;7812;50.072;7.036;2023-05-23T11:45:28;3.63;;;3.30;;
15425;SDS011;7812;50.072;7.036;2023-05-23T11:47:55;3.20;;;2.90;;
15425;SDS011;7812;50.072;7.036;2023-05-23T11:50:21;3.43;;;3.10;;
15425;SDS011;7812;50.072;7.036;2023-05-23T11:52:48;3.57;;;3.10;;
15425;SDS011;7812;50.072;7.036;2023-05-23T11:55:18;3.40;;;3.10;;
15425;SDS011;7812;50.072;7.036;2023-05-23T11:57:45;3.50;;;3.17;;
15425;SDS011;7812;50.072;7.036;2023-05-23T12:00:11;4.43;;;4.03;;
15425;SDS011;7812;50.072;7.036;2023-05-23T12:02:41;6.40;;;4.10;;
15425;SDS011;7812;50.072;7.036;2023-05-23T12:05:08;4.50;;;3.80;;
15425;SDS011;7812;50.072;7.036;2023-05-23T12:07:38;4.37;;;3.97;;
15425;SDS011;7812;50.072;7.036;2023-05-23T12:10:12;4.53;;;4.00;;
15425;SDS011;7812;50.072;7.036;2023-05-23T12:12:42;5.60;;;4.47;;
15425;SDS011;7812;50.072;7.036;2023-05-23T12:15:08;4.33;;;3.60;;
15425;SDS011;7812;50.072;7.036;2023-05-23T12:17:38;3.87;;;3.47;;
15425;SDS011;7812;50.072;7.036;2023-05-23T12:20:14;3.40;;;3.10;;
15425;SDS011;7812;50.072;7.036;2023-05-23T12:22:40;2.87;;;2.40;;
15425;SDS011;7812;50.072;7.036;2023-05-23T12:25:09;3.03;;;2.50;;
15425;SDS011;7812;50.072;7.036;2023-05-23T12:27:35;3.87;;;2.43;;
15425;SDS011;7812;50.072;7.036;2023-05-23T12:32:38;2.40;;;2.20;;
15425;SDS011;7812;50.072;7.036;2023-05-23T12:35:06;3.83;;;2.50;;
15425;SDS011;7812;50.072;7.036;2023-05-23T12:37:33;4.20;;;2.70;;
15425;SDS011;7812;50.072;7.036;2023-05-23T12:40:08;4.20;;;3.10;;
15425;SDS011;7812;50.072;7.036;2023-05-23T12:42:52;3.70;;;3.30;;
15425;SDS011;7812;50.072;7.036;2023-05-23T12:45:21;3.60;;;3.20;;
15425;SDS011;7812;50.072;7.036;2023-05-23T12:47:48;4.30;;;3.83;;
15425;SDS011;7812;50.072;7.036;2023-05-23T12:50:19;5.83;;;4.53;;
15425;SDS011;7812;50.072;7.036;2023-05-23T12:52:45;5.93;;;5.07;;
15425;SDS011;7812;50.072;7.036;2023-05-23T12:55:10;6.27;;;5.60;;
15425;SDS011;7812;50.072;7.036;2023-05-23T12:57:37;7.67;;;5.87;;
15425;SDS011;7812;50.072;7.036;2023-05-23T13:00:03;8.40;;;5.50;;
15425;SDS011;7812;50.072;7.036;2023-05-23T13:02:30;8.87;;;6.57;;
15425;SDS011;7812;50.072;7.036;2023-05-23T13:04:56;7.20;;;5.70;;
15425;SDS011;7812;50.072;7.036;2023-05-23T13:07:22;8.03;;;5.87;;
15425;SDS011;7812;50.072;7.036;2023-05-23T13:09:48;8.37;;;6.47;;
15425;SDS011;7812;50.072;7.036;2023-05-23T13:12:14;6.97;;;6.07;;
15425;SDS011;7812;50.072;7.036;2023-05-23T13:14:40;7.97;;;6.40;;
15425;SDS011;7812;50.072;7.036;2023-05-23T13:17:05;7.73;;;5.97;;
15425;SDS011;7812;50.072;7.036;2023-05-23T13:19:31;7.63;;;5.60;;
15425;SDS011;7812;50.072;7.036;2023-05-23T13:21:57;6.43;;;5.73;;
15425;SDS011;7812;50.072;7.036;2023-05-23T13:24:25;6.43;;;5.23;;
15425;SDS011;7812;50.072;7.036;2023-05-23T13:26:51;8.00;;;5.57;;
15425;SDS011;7812;50.072;7.036;2023-05-23T13:29:17;6.00;;;5.37;;
15425;SDS011;7812;50.072;7.036;2023-05-23T13:31:42;7.20;;;5.60;;
15425;SDS011;7812;50.072;7.036;2023-05-23T13:34:08;6.20;;;4.47;;
15425;SDS011;7812;50.072;7.036;2023-05-23T13:36:34;6.30;;;4.30;;
15425;SDS011;7812;50.072;7.036;2023-05-23T13:39:00;6.70;;;4.27;;
15425;SDS011;7812;50.072;7.036;2023-05-23T13:41:26;5.97;;;5.37;;
15425;SDS011;7812;50.072;7.036;2023-05-23T13:43:51;7.93;;;5.67;;
15425;SDS011;7812;50.072;7.036;2023-05-23T13:46:17;6.63;;;5.53;;
15425;SDS011;7812;50.072;7.036;2023-05-23T13:48:43;7.70;;;5.57;;
15425;SDS011;7812;50.072;7.036;2023-05-23T13:51:08;6.80;;;5.63;;
15425;SDS011;7812;50.072;7.036;2023-05-23T13:53:34;7.63;;;4.40;;
15425;SDS011;7812;50.072;7.036;2023-05-23T13:56:00;6.60;;;4.70;;
15425;SDS011;7812;50.072;7.036;2023-05-23T13:58:27;5.10;;;4.27;;
15425;SDS011;7812;50.072;7.036;2023-05-23T14:00:53;7.10;;;4.90;;
15425;SDS011;7812;50.072;7.036;2023-05-23T14:03:19;7.27;;;4.57;;
15425;SDS011;7812;50.072;7.036;2023-05-23T14:05:44;7.00;;;4.60;;
15425;SDS011;7812;50.072;7.036;2023-05-23T14:08:10;5.83;;;4.17;;
15425;SDS011;7812;50.072;7.036;2023-05-23T14:10:39;5.33;;;4.10;;
15425;SDS011;7812;50.072;7.036;2023-05-23T14:13:05;5.63;;;3.93;;
15425;SDS011;7812;50.072;7.036;2023-05-23T14:15:31;4.27;;;3.57;;
15425;SDS011;7812;50.072;7.036;2023-05-23T14:17:57;7.20;;;3.73;;
15425;SDS011;7812;50.072;7.036;2023-05-23T14:20:23;5.83;;;3.63;;
15425;SDS011;7812;50.072;7.036;2023-05-23T14:22:49;3.93;;;3.23;;
15425;SDS011;7812;50.072;7.036;2023-05-23T14:25:15;3.30;;;2.90;;
15425;SDS011;7812;50.072;7.036;2023-05-23T14:27:43;3.17;;;2.77;;
15425;SDS011;7812;50.072;7.036;2023-05-23T14:30:08;4.83;;;3.20;;
15425;SDS011;7812;50.072;7.036;2023-05-23T14:32:43;4.63;;;3.23;;
15425;SDS011;7812;50.072;7.036;2023-05-23T14:35:10;5.00;;;3.17;;
15425;SDS011;7812;50.072;7.036;2023-05-23T14:37:36;5.57;;;3.37;;
15425;SDS011;7812;50.072;7.036;2023-05-23T14:40:03;4.03;;;3.40;;
15425;SDS011;7812;50.072;7.036;2023-05-23T14:42:34;4.70;;;3.37;;
15425;SDS011;7812;50.072;7.036;2023-05-23T14:44:59;4.97;;;3.17;;
15425;SDS011;7812;50.072;7.036;2023-05-23T14:47:25;4.23;;;3.00;;
15425;SDS011;7812;50.072;7.036;2023-05-23T14:49:51;5.17;;;3.50;;
15425;SDS011;7812;50.072;7.036;2023-05-23T14:52:17;4.77;;;3.97;;
15425;SDS011;7812;50.072;7.036;2023-05-23T14:54:42;12.47;;;4.50;;
15425;SDS011;7812;50.072;7.036;2023-05-23T14:57:08;8.90;;;4.53;;
15425;SDS011;7812;50.072;7.036;2023-05-23T14:59:34;7.10;;;4.83;;
15425;SDS011;7812;50.072;7.036;2023-05-23T15:02:01;12.17;;;4.53;;
15425;SDS011;7812;50.072;7.036;2023-05-23T15:04:28;6.37;;;4.70;;
15425;SDS011;7812;50.072;7.036;2023-05-23T15:06:54;6.90;;;4.73;;
15425;SDS011;7812;50.072;7.036;2023-05-23T15:09:20;6.47;;;4.00;;
15425;SDS011;7812;50.072;7.036;2023-05-23T15:11:46;7.43;;;4.97;;
15425;SDS011;7812;50.072;7.036;2023-05-23T15:14:13;6.23;;;4.50;;
15425;SDS011;7812;50.072;7.036;2023-05-23T15:16:43;6.40;;;4.27;;
15425;SDS011;7812;50.072;7.036;2023-05-23T15:19:09;7.63;;;4.60;;
15425;SDS011;7812;50.072;7.036;2023-05-23T15:21:36;6.17;;;4.60;;
15425;SDS011;7812;50.072;7.036;2023-05-23T15:24:02;6.17;;;4.20;;
15425;SDS011;7812;50.072;7.036;2023-05-23T15:26:27;7.33;;;4.47;;
15425;SDS011;7812;50.072;7.036;2023-05-23T15:28:53;8.87;;;4.70;;
15425;SDS011;7812;50.072;7.036;2023-05-23T15:31:19;7.80;;;4.30;;
15425;SDS011;7812;50.072;7.036;2023-05-23T15:33:46;5.90;;;4.13;;
15425;SDS011;7812;50.072;7.036;2023-05-23T15:36:14;5.17;;;4.10;;
15425;SDS011;7812;50.072;7.036;2023-05-23T15:38:40;7.67;;;4.60;;